createdAt,value
2023-10-10T00:03:43.515Z,8.40
2023-10-10T00:18:45.697Z,8.25
2023-10-10T00:33:51.419Z,7.93
2023-10-10T00:49:01.369Z,8.40
2023-10-10T01:04:07.216Z,8.32
2023-10-10T01:19:09.724Z,8.15
2023-10-10T01:34:11.768Z,8.20
2023-10-10T01:49:26.738Z,8.00
2023-10-10T02:04:35.285Z,8.50
2023-10-10T02:19:42.209Z,8.80
2023-10-10T02:34:44.775Z,8.52
2023-10-10T02:49:47.688Z,8.95
2023-10-10T03:04:55.951Z,8.35
2023-10-10T03:20:14.582Z,9.30
2023-10-10T03:35:35.058Z,8.75
2023-10-10T03:51:00.874Z,9.20
2023-10-10T04:06:22.748Z,8.90
2023-10-10T04:21:43.471Z,8.77
2023-10-10T04:37:03.818Z,8.77
2023-10-10T04:52:24.272Z,8.85
2023-10-10T05:07:44.755Z,9.23
2023-10-10T05:23:05.222Z,9.25
2023-10-10T05:38:10.340Z,8.27
2023-10-10T05:53:12.411Z,15.95
2023-10-10T06:08:14.692Z,12.70
2023-10-10T06:23:18.350Z,10.90
2023-10-10T06:38:25.795Z,10.70
2023-10-10T06:53:36.699Z,10.57
2023-10-10T07:08:38.828Z,10.15
2023-10-10T07:23:55.105Z,9.88
2023-10-10T07:39:17.278Z,9.93
2023-10-10T07:54:31.097Z,11.00
2023-10-10T08:09:34.853Z,11.05
2023-10-10T08:24:40.577Z,11.00
2023-10-10T08:39:42.699Z,10.27
2023-10-10T08:54:45.344Z,11.23
2023-10-10T09:09:59.525Z,11.18
2023-10-10T09:25:19.499Z,10.48
2023-10-10T09:40:21.519Z,10.43
2023-10-10T09:55:26.066Z,10.75
2023-10-10T10:10:53.606Z,16.48
2023-10-10T10:26:05.676Z,16.02
2023-10-10T10:41:09.531Z,13.52
2023-10-10T10:56:17.353Z,11.90
2023-10-10T11:11:38.285Z,10.57
2023-10-10T11:26:41.142Z,10.05
2023-10-10T11:41:43.220Z,10.52
2023-10-10T11:56:47.551Z,9.63
2023-10-10T12:11:49.712Z,9.52
2023-10-10T12:26:55.486Z,9.85
2023-10-10T12:41:58.358Z,9.50
2023-10-10T12:57:04.290Z,9.43
2023-10-10T13:12:06.300Z,8.20
2023-10-10T13:27:08.416Z,9.05
2023-10-10T13:42:11.149Z,9.25
2023-10-10T13:57:13.963Z,9.45
2023-10-10T14:12:21.537Z,8.48
2023-10-10T14:27:24.395Z,9.32
2023-10-10T14:42:29.064Z,9.13
2023-10-10T14:57:31.089Z,8.55
2023-10-10T15:12:34.448Z,8.38
2023-10-10T15:27:37.116Z,8.13
2023-10-10T15:42:39.119Z,8.23
2023-10-10T15:57:41.269Z,8.68
2023-10-10T16:12:44.225Z,7.45
2023-10-10T16:27:46.173Z,7.95
2023-10-10T16:42:48.117Z,8.38
2023-10-10T16:57:50.067Z,7.72
2023-10-10T17:12:53.189Z,8.18
2023-10-10T17:27:55.901Z,8.40
2023-10-10T17:42:58.908Z,9.50
2023-10-10T17:58:00.904Z,9.40
2023-10-10T18:13:05.977Z,9.80
2023-10-10T18:28:07.975Z,9.57
2023-10-10T18:43:10.522Z,9.45
2023-10-10T18:58:13.317Z,9.45
2023-10-10T19:13:15.487Z,9.07
2023-10-10T19:28:17.868Z,8.73
2023-10-10T19:43:19.944Z,9.20
2023-10-10T19:58:22.292Z,9.52
2023-10-10T20:13:24.395Z,9.43
2023-10-10T20:28:26.840Z,9.23
2023-10-10T20:43:28.892Z,8.73
2023-10-10T20:58:33.094Z,8.80
2023-10-10T21:13:35.985Z,9.18
2023-10-10T21:28:38.423Z,9.23
2023-10-10T21:43:40.395Z,9.13
2023-10-10T21:58:42.406Z,9.15
2023-10-10T22:13:44.854Z,9.10
2023-10-10T22:28:46.907Z,8.95
2023-10-10T22:43:49.856Z,9.10
2023-10-10T22:58:52.000Z,9.13
2023-10-10T23:13:53.935Z,9.60
2023-10-10T23:28:55.921Z,9.55
2023-10-10T23:43:58.273Z,9.57
2023-10-10T23:59:01.909Z,9.90
